YWRL weather

Warialda Airport
New South Wales, Australia

Public forecast

Using degrees Celsius for public forecast. Weather courtesy of forecast.io.

METAR (pilot weather report)

Closest report is Moree Airport, 36.0 nm (66.7 km) W. Retrieved 2019/06/18 10:00 UTC (51 minutes ago):

YMOR 181000Z AUTO 23008KT 9999 // NCD 11/02 Q1019

TAF (pilot weather forecast)

Forecast is more than 12 hours old.

Closest forecast is Tamworth Airport, 94.5 nm (175.0 km) S. Retrieved 2019/06/17 00:36 UTC (1 day ago):

TAF TAF YSTW 172242Z 1800/1818 27005KT 9999 SCT015 BKN035 FM180200 24005KT 9999 BKN040 FM181500 VRB03KT 9999 SCT040